Time;durP1;ratioP1;P1;durP2;ratioP2;P2;SDS_P1;SDS_P2;PMS_P1;PMS_P2;Temp;Humidity;BMP_temperature;BMP_pressure;BME280_temperature;BME280_humidity;BME280_pressure;Samples;Min_cycle;Max_cycle;Signal;HPM_P1;HPM_P2
2021/07/20 00:01:39;;;;;;;20.13;13.30;;;18.50;95.80;;;;;;5032798;28;20041;-50
2021/07/20 00:04:04;;;;;;;20.23;12.88;;;18.50;95.90;;;;;;5032489;28;20082;-51
2021/07/20 00:06:30;;;;;;;22.52;13.45;;;18.40;96.00;;;;;;5032818;28;20112;-50
2021/07/20 00:08:55;;;;;;;17.55;12.18;;;18.30;96.20;;;;;;5031845;28;20030;-50
2021/07/20 00:11:21;;;;;;;27.38;13.93;;;18.30;96.40;;;;;;5030656;28;20038;-50
2021/07/20 00:13:46;;;;;;;17.98;12.65;;;18.10;96.50;;;;;;5032565;28;20052;-48
2021/07/20 00:16:13;;;;;;;19.15;12.43;;;18.10;96.70;;;;;;5032554;28;20056;-47
2021/07/20 00:18:40;;;;;;;18.23;12.27;;;17.90;96.90;;;;;;5031921;28;20025;-50
2021/07/20 00:21:08;;;;;;;19.83;13.48;;;17.80;97.10;;;;;;5032413;28;20034;-49
2021/07/20 00:23:34;;;;;;;19.15;12.70;;;17.60;97.40;;;;;;5032276;28;20029;-50
2021/07/20 00:26:01;;;;;;;21.50;13.68;;;17.60;97.90;;;;;;5031145;28;20474;-47
2021/07/20 00:28:27;;;;;;;21.60;14.02;;;17.60;97.60;;;;;;5032611;28;20026;-48
2021/07/20 00:30:52;;;;;;;25.13;12.18;;;17.70;97.60;;;;;;5032041;28;20018;-48
2021/07/20 00:33:18;;;;;;;26.90;14.18;;;17.60;97.70;;;;;;5031214;28;20036;-49
2021/07/20 00:35:44;;;;;;;19.63;13.65;;;17.70;97.70;;;;;;5032300;28;20096;-52
2021/07/20 00:38:15;;;;;;;16.25;13.52;;;17.70;97.80;;;;;;5032300;28;20044;-47
2021/07/20 00:40:41;;;;;;;20.30;14.15;;;17.70;97.70;;;;;;5031092;28;20056;-49
2021/07/20 00:43:06;;;;;;;24.08;13.85;;;17.60;97.80;;;;;;5031004;28;20061;-49
2021/07/20 00:45:32;;;;;;;23.95;14.20;;;17.50;97.90;;;;;;5031878;28;20025;-48
2021/07/20 00:47:58;;;;;;;21.58;12.95;;;17.50;98.00;;;;;;5032042;28;20049;-48
2021/07/20 00:50:26;;;;;;;23.95;14.38;;;17.50;98.10;;;;;;5031273;28;20136;-49
2021/07/20 00:52:52;;;;;;;20.10;14.75;;;17.50;98.10;;;;;;5031864;28;20030;-49
2021/07/20 00:55:19;;;;;;;23.52;13.70;;;17.50;98.10;;;;;;5031617;28;20041;-49
2021/07/20 00:57:45;;;;;;;18.33;13.32;;;17.40;98.20;;;;;;5030566;28;20372;-48
2021/07/20 01:00:14;;;;;;;26.27;13.63;;;17.30;98.40;;;;;;5031262;28;20033;-47
2021/07/20 01:02:39;;;;;;;20.58;13.10;;;17.40;98.40;;;;;;5031687;28;20022;-49
2021/07/20 01:05:14;;;;;;;18.05;13.45;;;17.40;98.40;;;;;;5031379;28;20047;-49
2021/07/20 01:07:43;;;;;;;21.77;14.13;;;17.30;98.50;;;;;;5031405;28;20078;-51
2021/07/20 01:10:09;;;;;;;21.95;13.15;;;17.30;98.60;;;;;;5030751;28;20024;-48
2021/07/20 01:12:38;;;;;;;20.17;13.25;;;17.20;98.90;;;;;;5030180;28;20033;-50
2021/07/20 01:15:06;;;;;;;22.00;14.70;;;17.10;99.00;;;;;;5031169;28;20032;-51
2021/07/20 01:17:32;;;;;;;19.95;13.30;;;17.00;99.20;;;;;;5031246;28;20027;-48
2021/07/20 01:19:59;;;;;;;22.23;13.10;;;17.10;99.10;;;;;;5030581;28;20021;-47
2021/07/20 01:22:32;;;;;;;19.27;11.88;;;17.00;99.20;;;;;;5031031;28;20099;-48
2021/07/20 01:25:00;;;;;;;17.02;12.80;;;17.00;99.40;;;;;;5031097;28;20494;-52
2021/07/20 01:27:25;;;;;;;20.55;13.13;;;17.00;99.20;;;;;;5031165;28;20061;-48
2021/07/20 01:29:53;;;;;;;20.05;11.95;;;17.00;99.20;;;;;;5030547;28;20057;-47
2021/07/20 01:32:20;;;;;;;20.98;14.10;;;17.00;99.20;;;;;;5031120;28;20422;-50
2021/07/20 01:34:47;;;;;;;20.48;13.18;;;17.10;99.30;;;;;;5030879;28;20024;-47
2021/07/20 01:37:15;;;;;;;21.02;13.15;;;17.10;99.30;;;;;;5013296;28;20483;-48
2021/07/20 01:39:42;;;;;;;18.77;12.15;;;17.10;99.30;;;;;;5030380;28;20104;-51
2021/07/20 01:42:09;;;;;;;21.15;12.57;;;17.10;99.30;;;;;;5030924;28;20048;-48
2021/07/20 01:44:35;;;;;;;18.10;13.45;;;17.10;99.30;;;;;;5029574;28;20068;-49
2021/07/20 01:47:01;;;;;;;23.20;14.00;;;17.10;99.40;;;;;;5030885;28;20034;-47
2021/07/20 01:49:30;;;;;;;16.85;12.77;;;17.10;99.60;;;;;;5030254;28;20079;-51
2021/07/20 01:51:56;;;;;;;18.98;11.88;;;17.10;99.90;;;;;;5030127;28;20128;-49
2021/07/20 01:54:23;;;;;;;16.77;12.15;;;17.10;99.90;;;;;;5030732;28;20032;-49
2021/07/20 01:56:49;;;;;;;17.85;12.45;;;17.10;99.90;;;;;;5030866;28;20481;-48
2021/07/20 01:59:15;;;;;;;17.75;12.55;;;17.00;99.90;;;;;;5029964;28;20080;-50
2021/07/20 02:09:55;;;;;;;20.02;12.65;;;16.80;99.90;;;;;;5028185;28;20442;-51
2021/07/20 02:12:32;;;;;;;18.95;12.63;;;16.70;99.90;;;;;;5030868;28;20014;-48
2021/07/20 02:14:58;;;;;;;16.90;12.07;;;16.70;99.90;;;;;;5029496;28;20117;-51
2021/07/20 02:17:25;;;;;;;18.13;13.00;;;16.60;99.90;;;;;;5030477;28;20041;-50
2021/07/20 02:19:57;;;;;;;17.40;11.65;;;16.60;99.90;;;;;;5029580;28;20021;-52
2021/07/20 02:22:24;;;;;;;18.65;13.45;;;16.60;99.90;;;;;;5030584;28;20530;-49
2021/07/20 02:24:53;;;;;;;16.27;12.80;;;16.60;99.90;;;;;;5030486;28;20105;-49
2021/07/20 02:27:22;;;;;;;20.92;13.05;;;16.60;99.90;;;;;;5030320;28;20109;-52
2021/07/20 02:29:49;;;;;;;19.98;12.85;;;16.60;99.90;;;;;;5029833;28;20097;-52
2021/07/20 02:32:16;;;;;;;20.40;13.00;;;16.50;99.90;;;;;;5030461;28;20021;-52
2021/07/20 02:34:44;;;;;;;18.55;12.35;;;16.50;99.90;;;;;;5030760;28;20033;-51
2021/07/20 02:37:10;;;;;;;16.67;12.30;;;16.50;99.90;;;;;;5030113;28;20032;-49
2021/07/20 02:39:36;;;;;;;20.13;14.15;;;16.50;99.90;;;;;;5029393;28;20033;-49
2021/07/20 02:42:03;;;;;;;21.80;14.45;;;16.50;99.90;;;;;;5030498;28;20402;-48
2021/07/20 02:44:29;;;;;;;20.17;13.13;;;16.40;99.90;;;;;;5030062;28;20452;-48
2021/07/20 02:46:57;;;;;;;23.60;14.63;;;16.40;99.90;;;;;;5028902;28;20102;-50
2021/07/20 02:49:23;;;;;;;22.25;13.68;;;16.30;99.90;;;;;;5029136;28;20029;-51
2021/07/20 02:51:51;;;;;;;18.60;13.52;;;16.20;99.90;;;;;;5030027;28;20024;-50
2021/07/20 02:54:19;;;;;;;19.63;12.63;;;16.20;99.90;;;;;;5030013;28;20033;-48
2021/07/20 02:56:45;;;;;;;21.45;13.52;;;16.10;99.90;;;;;;5029914;28;20045;-49
2021/07/20 02:59:15;;;;;;;23.92;14.02;;;16.10;99.90;;;;;;5027934;28;20107;-48
2021/07/20 03:01:42;;;;;;;20.65;13.82;;;16.10;99.90;;;;;;5029961;28;20079;-52
2021/07/20 03:04:08;;;;;;;17.77;12.30;;;16.00;99.90;;;;;;5033237;28;20478;-50
2021/07/20 03:06:35;;;;;;;20.55;12.52;;;16.10;99.90;;;;;;5033689;28;20100;-49
2021/07/20 03:09:02;;;;;;;19.92;13.10;;;16.00;99.90;;;;;;5033009;28;20022;-50
2021/07/20 03:11:35;;;;;;;20.65;13.13;;;16.00;99.90;;;;;;5031957;28;20100;-49
2021/07/20 03:14:08;;;;;;;18.83;13.45;;;16.00;99.90;;;;;;5033719;28;20112;-49
2021/07/20 03:16:37;;;;;;;18.85;13.57;;;15.90;99.90;;;;;;5032422;28;20033;-49
2021/07/20 03:19:07;;;;;;;20.73;12.48;;;16.00;99.90;;;;;;5032765;28;20112;-51
2021/07/20 03:21:34;;;;;;;18.40;13.45;;;16.00;99.90;;;;;;5033487;28;20022;-51
2021/07/20 03:24:02;;;;;;;21.67;14.50;;;16.00;99.90;;;;;;5033468;28;20033;-48
2021/07/20 03:26:28;;;;;;;18.63;13.07;;;16.00;99.90;;;;;;5033330;28;20029;-51
2021/07/20 03:28:55;;;;;;;23.45;14.27;;;16.00;99.90;;;;;;5032773;28;20021;-51
2021/07/20 03:31:21;;;;;;;19.02;14.00;;;16.10;99.90;;;;;;5033150;28;20017;-47
2021/07/20 03:33:48;;;;;;;22.25;14.25;;;16.10;99.90;;;;;;5033127;28;20490;-50
2021/07/20 03:36:14;;;;;;;20.60;14.18;;;16.20;99.90;;;;;;5033286;28;20112;-48
2021/07/20 03:38:41;;;;;;;23.08;14.43;;;16.20;99.90;;;;;;5032560;28;20034;-50
2021/07/20 03:41:08;;;;;;;18.00;12.82;;;16.20;99.90;;;;;;5033294;28;20048;-48
2021/07/20 03:43:35;;;;;;;20.95;13.88;;;16.20;99.90;;;;;;5031366;28;20485;-51
2021/07/20 03:46:01;;;;;;;23.90;14.43;;;16.20;99.90;;;;;;5033220;28;20467;-49
2021/07/20 03:48:32;;;;;;;21.05;13.45;;;16.20;99.90;;;;;;5033062;28;20014;-48
2021/07/20 03:50:59;;;;;;;18.27;13.00;;;16.20;99.90;;;;;;5032614;28;20387;-48
2021/07/20 03:53:26;;;;;;;20.50;14.35;;;16.10;99.90;;;;;;5032840;28;20030;-51
2021/07/20 03:55:55;;;;;;;21.52;13.00;;;16.10;99.90;;;;;;5032932;28;20159;-48
2021/07/20 03:58:21;;;;;;;22.55;14.70;;;16.20;99.90;;;;;;5032941;28;20193;-53
2021/07/20 04:00:54;;;;;;;23.13;15.45;;;16.20;99.90;;;;;;5032692;28;20101;-49
2021/07/20 04:06:00;;;;;;;22.48;14.05;;;16.30;99.90;;;;;;5032804;28;20041;-49
2021/07/20 04:08:26;;;;;;;19.42;14.25;;;16.20;99.90;;;;;;5032738;28;20107;-49
2021/07/20 04:10:54;;;;;;;21.80;15.30;;;16.20;99.90;;;;;;5031661;28;20068;-48
2021/07/20 04:13:20;;;;;;;18.92;15.40;;;16.10;99.90;;;;;;5032778;28;20072;-48
2021/07/20 04:15:56;;;;;;;21.98;15.35;;;16.00;99.90;;;;;;5031957;28;20566;-48
2021/07/20 04:18:22;;;;;;;21.83;15.15;;;16.00;99.90;;;;;;5032565;28;20029;-49
2021/07/20 04:20:49;;;;;;;26.60;14.60;;;16.00;99.90;;;;;;5031741;28;20036;-48
2021/07/20 04:23:16;;;;;;;23.27;15.20;;;16.00;99.90;;;;;;5032360;28;20034;-47
2021/07/20 04:25:46;;;;;;;20.45;14.18;;;16.00;99.90;;;;;;5032147;28;20025;-50
2021/07/20 04:28:14;;;;;;;23.73;15.35;;;16.00;99.90;;;;;;5032286;28;20037;-47
2021/07/20 04:30:42;;;;;;;22.25;15.05;;;16.10;99.90;;;;;;5031774;28;20029;-46
2021/07/20 04:33:08;;;;;;;25.25;15.60;;;16.10;99.90;;;;;;5032210;28;20488;-46
2021/07/20 04:35:35;;;;;;;20.30;14.43;;;16.10;99.90;;;;;;5032039;28;20060;-47
2021/07/20 04:38:01;;;;;;;23.30;15.40;;;16.10;99.90;;;;;;5032209;28;20052;-47
2021/07/20 04:40:27;;;;;;;26.17;14.98;;;16.10;99.90;;;;;;5031371;28;20043;-46
2021/07/20 04:42:53;;;;;;;21.23;15.10;;;16.10;99.90;;;;;;5031995;28;20026;-48
2021/07/20 04:45:19;;;;;;;23.95;15.50;;;16.10;99.90;;;;;;5031947;28;20376;-49
2021/07/20 04:47:45;;;;;;;25.23;15.82;;;16.10;99.90;;;;;;5031848;28;20029;-47
2021/07/20 04:50:13;;;;;;;20.23;14.77;;;16.10;99.90;;;;;;5031320;28;20040;-48
2021/07/20 04:52:41;;;;;;;28.25;15.57;;;16.10;99.90;;;;;;5031716;28;20482;-47
2021/07/20 04:55:08;;;;;;;20.55;14.27;;;16.10;99.90;;;;;;5031628;28;20029;-47
2021/07/20 04:57:36;;;;;;;22.80;14.88;;;16.10;99.90;;;;;;5031616;28;20028;-47
2021/07/20 05:00:09;;;;;;;23.80;15.43;;;16.10;99.90;;;;;;5031003;28;20111;-46
2021/07/20 05:02:43;;;;;;;25.90;16.33;;;16.30;99.90;;;;;;5030285;28;20033;-48
2021/07/20 05:05:12;;;;;;;24.75;15.65;;;16.40;99.90;;;;;;5032650;28;20033;-50
2021/07/20 05:07:40;;;;;;;30.20;16.75;;;16.30;99.90;;;;;;5030274;28;20028;-47
2021/07/20 05:10:06;;;;;;;22.55;15.18;;;16.40;99.90;;;;;;5028940;28;20025;-52
2021/07/20 05:12:32;;;;;;;24.45;15.70;;;16.50;99.90;;;;;;5031306;28;20053;-48
2021/07/20 05:14:58;;;;;;;23.23;14.40;;;16.50;99.90;;;;;;5029872;28;20022;-49
2021/07/20 05:17:23;;;;;;;23.38;15.93;;;16.50;99.90;;;;;;5031195;28;20029;-47
2021/07/20 05:19:49;;;;;;;22.17;15.75;;;16.50;99.90;;;;;;5029133;28;20060;-49
2021/07/20 05:22:19;;;;;;;24.70;15.43;;;16.50;99.90;;;;;;5029724;28;20049;-47
2021/07/20 05:24:44;;;;;;;20.83;14.75;;;16.60;99.90;;;;;;5031104;28;20109;-49
2021/07/20 05:27:12;;;;;;;25.60;15.27;;;16.60;99.90;;;;;;5030136;28;20029;-49
2021/07/20 05:29:39;;;;;;;24.55;15.57;;;16.70;99.90;;;;;;5030133;28;20540;-47
2021/07/20 05:32:05;;;;;;;25.27;14.38;;;16.80;99.90;;;;;;5030823;28;20076;-46
2021/07/20 05:34:31;;;;;;;17.92;13.55;;;16.80;99.90;;;;;;5031282;28;20091;-47
2021/07/20 05:36:57;;;;;;;24.30;15.00;;;16.90;99.90;;;;;;5030851;28;20026;-49
2021/07/20 05:39:24;;;;;;;22.75;14.13;;;16.90;99.90;;;;;;5029937;28;20411;-50
2021/07/20 05:41:50;;;;;;;26.30;15.60;;;17.10;99.90;;;;;;5030814;28;20028;-49
2021/07/20 05:44:17;;;;;;;24.27;15.15;;;17.20;99.90;;;;;;5030692;28;20403;-50
2021/07/20 05:46:44;;;;;;;26.10;16.00;;;17.30;99.90;;;;;;5030897;28;20061;-47
2021/07/20 05:49:14;;;;;;;24.60;15.00;;;17.50;99.90;;;;;;5030096;28;20577;-49
2021/07/20 05:51:41;;;;;;;22.58;14.13;;;17.50;99.90;;;;;;5030710;28;20132;-49
2021/07/20 05:54:08;;;;;;;19.38;14.05;;;17.50;99.90;;;;;;5030369;28;20037;-48
2021/07/20 05:56:35;;;;;;;19.20;14.98;;;17.50;99.90;;;;;;5029288;28;20071;-48
2021/07/20 05:59:01;;;;;;;21.40;13.40;;;17.60;99.90;;;;;;5029994;28;20032;-48
2021/07/20 06:01:29;;;;;;;24.02;15.20;;;17.70;99.90;;;;;;5031056;28;20025;-48
2021/07/20 06:03:56;;;;;;;28.83;16.02;;;17.80;99.90;;;;;;5030419;28;20100;-47
2021/07/20 06:06:28;;;;;;;27.85;14.98;;;17.80;99.90;;;;;;5030849;28;20034;-48
2021/07/20 06:09:02;;;;;;;25.40;16.17;;;18.00;99.90;;;;;;5029798;28;20061;-47
2021/07/20 06:11:30;;;;;;;23.95;15.38;;;18.00;99.90;;;;;;5029396;28;20014;-47
2021/07/20 06:13:56;;;;;;;23.33;14.18;;;18.00;99.90;;;;;;5030292;28;20029;-48
2021/07/20 06:16:23;;;;;;;23.67;15.43;;;18.10;99.60;;;;;;5030407;28;20395;-48
2021/07/20 06:18:49;;;;;;;23.88;16.00;;;18.20;99.70;;;;;;5029614;28;20037;-47
2021/07/20 06:21:19;;;;;;;21.70;13.48;;;18.20;99.60;;;;;;5030499;28;20506;-48
2021/07/20 06:23:46;;;;;;;23.13;14.70;;;18.10;99.40;;;;;;5030094;28;20108;-48
2021/07/20 06:26:23;;;;;;;26.55;15.77;;;18.10;99.80;;;;;;5030311;28;20028;-48
2021/07/20 06:28:53;;;;;;;22.92;15.38;;;18.00;99.80;;;;;;5029472;28;20028;-47
2021/07/20 06:31:19;;;;;;;22.40;15.25;;;18.10;99.80;;;;;;5029990;28;20457;-50
2021/07/20 06:33:47;;;;;;;26.23;16.20;;;18.00;99.70;;;;;;5029877;28;20520;-47
2021/07/20 06:36:17;;;;;;;21.20;13.57;;;18.10;99.90;;;;;;5029921;28;20060;-48
2021/07/20 06:38:43;;;;;;;19.15;14.27;;;18.10;99.90;;;;;;5032429;28;20056;-50
2021/07/20 06:41:09;;;;;;;22.00;14.13;;;18.10;99.90;;;;;;5034083;28;20057;-48
2021/07/20 06:43:36;;;;;;;23.60;15.35;;;18.20;99.70;;;;;;5033947;28;20482;-47
2021/07/20 06:46:02;;;;;;;20.15;13.93;;;18.30;99.70;;;;;;5034037;28;20029;-47
2021/07/20 06:48:29;;;;;;;22.58;14.70;;;18.30;99.50;;;;;;5033903;28;20441;-45
2021/07/20 06:50:55;;;;;;;29.63;14.75;;;18.40;99.70;;;;;;5033548;28;20192;-48
2021/07/20 06:53:21;;;;;;;21.33;13.23;;;18.40;99.60;;;;;;5032752;28;20530;-50
2021/07/20 06:55:55;;;;;;;24.42;12.70;;;18.50;99.90;;;;;;5032948;28;20029;-49
2021/07/20 06:58:22;;;;;;;19.15;12.85;;;18.50;99.90;;;;;;5034060;28;20032;-49
2021/07/20 07:00:52;;;;;;;19.30;13.02;;;18.60;99.80;;;;;;5033139;28;20029;-51
2021/07/20 07:03:22;;;;;;;18.67;13.25;;;18.80;99.40;;;;;;5033587;28;20378;-50
2021/07/20 07:05:49;;;;;;;19.85;12.73;;;18.90;99.10;;;;;;5035683;28;20034;-49
2021/07/20 07:08:16;;;;;;;16.98;11.90;;;19.00;98.90;;;;;;5033484;28;20025;-46
2021/07/20 07:10:42;;;;;;;19.55;12.25;;;19.10;97.60;;;;;;5048048;28;20032;-47
2021/07/20 07:13:08;;;;;;;17.55;11.65;;;19.20;97.60;;;;;;5053299;28;20031;-50
2021/07/20 07:15:36;;;;;;;16.45;10.48;;;19.20;97.50;;;;;;5033554;28;20025;-47
2021/07/20 07:18:03;;;;;;;16.00;10.32;;;19.20;97.30;;;;;;5032560;28;20033;-51
2021/07/20 07:20:29;;;;;;;20.38;10.45;;;19.20;96.70;;;;;;5032420;28;20029;-47
2021/07/20 07:22:58;;;;;;;16.17;10.90;;;19.30;97.30;;;;;;5032330;28;20040;-51
2021/07/20 07:25:24;;;;;;;18.70;10.43;;;19.50;97.40;;;;;;5032967;28;20031;-49
2021/07/20 07:27:50;;;;;;;16.02;10.10;;;19.60;97.00;;;;;;5032670;28;20022;-50
2021/07/20 07:30:17;;;;;;;15.88;11.25;;;19.60;97.10;;;;;;5031323;28;20053;-51
2021/07/20 07:32:43;;;;;;;19.55;10.85;;;19.70;97.40;;;;;;5033605;28;20018;-48
2021/07/20 07:35:10;;;;;;;16.88;10.55;;;19.90;96.80;;;;;;5031651;28;20514;-50
2021/07/20 07:37:37;;;;;;;18.75;10.13;;;20.00;95.70;;;;;;5032839;28;20503;-48
2021/07/20 07:40:06;;;;;;;15.73;9.35;;;19.80;95.00;;;;;;5031115;28;20372;-47
2021/07/20 07:42:34;;;;;;;14.30;9.10;;;20.00;95.00;;;;;;5030964;28;20100;-45
2021/07/20 07:45:00;;;;;;;18.15;9.65;;;20.10;94.80;;;;;;5032433;28;20105;-49
2021/07/20 07:47:27;;;;;;;13.32;8.63;;;20.20;94.30;;;;;;5032606;28;20060;-47
2021/07/20 07:49:53;;;;;;;11.90;9.23;;;20.50;94.30;;;;;;5031143;28;20026;-48
2021/07/20 07:52:19;;;;;;;13.93;9.35;;;20.90;93.80;;;;;;5032319;28;20018;-48
2021/07/20 07:54:46;;;;;;;16.77;8.95;;;21.50;93.10;;;;;;5032765;28;20291;-46
2021/07/20 07:57:15;;;;;;;11.23;8.55;;;22.30;92.30;;;;;;5032159;28;20021;-46
2021/07/20 07:59:42;;;;;;;13.13;8.73;;;23.20;89.80;;;;;;5031763;28;20030;-48
2021/07/20 08:02:13;;;;;;;14.73;8.07;;;23.50;87.10;;;;;;5032335;28;20514;-47
2021/07/20 08:04:43;;;;;;;27.23;8.60;;;23.80;84.60;;;;;;5031919;28;20072;-47
2021/07/20 08:07:10;;;;;;;14.07;7.93;;;23.70;84.70;;;;;;5032124;28;20032;-48
2021/07/20 08:09:37;;;;;;;14.50;7.53;;;23.90;83.30;;;;;;5030218;28;20691;-49
2021/07/20 08:12:06;;;;;;;15.10;6.93;;;23.90;84.30;;;;;;5031781;28;20072;-49
2021/07/20 08:14:31;;;;;;;9.70;7.38;;;24.10;82.20;;;;;;5029825;28;20032;-51
2021/07/20 08:17:02;;;;;;;13.82;7.70;;;24.60;81.80;;;;;;5031523;28;20025;-44
2021/07/20 08:19:31;;;;;;;17.38;8.27;;;24.80;79.60;;;;;;5031266;28;20057;-46
2021/07/20 08:22:04;;;;;;;12.90;7.95;;;25.00;79.70;;;;;;5032549;28;20111;-50
2021/07/20 08:24:31;;;;;;;13.73;9.50;;;25.20;79.50;;;;;;5012435;28;20053;-52
2021/07/20 08:27:20;;;;;;;18.77;13.23;;;25.90;78.10;;;;;;5017524;28;20390;-47
2021/07/20 08:29:50;;;;;;;11.52;8.23;;;26.10;76.80;;;;;;5020717;28;20121;-50
2021/07/20 08:32:20;;;;;;;12.23;7.70;;;25.90;75.70;;;;;;5031953;28;20111;-49
2021/07/20 08:34:51;;;;;;;11.80;8.05;;;25.90;76.50;;;;;;5031685;28;20171;-47
2021/07/20 08:37:18;;;;;;;11.95;7.88;;;25.00;78.10;;;;;;5031825;28;20112;-49
2021/07/20 08:39:46;;;;;;;10.88;7.50;;;24.00;80.20;;;;;;5032714;28;20102;-48
2021/07/20 08:42:18;;;;;;;12.95;8.55;;;23.60;82.50;;;;;;5051999;28;20389;-48
2021/07/20 08:45:03;;;;;;;11.18;8.48;;;23.30;82.90;;;;;;5041903;28;20021;-48
2021/07/20 08:47:59;;;;;;;16.20;8.75;;;23.10;83.80;;;;;;5030497;28;20064;-50
2021/07/20 08:50:38;;;;;;;9.95;7.95;;;23.10;82.40;;;;;;5035383;28;20083;-50
2021/07/20 08:53:18;;;;;;;16.25;8.75;;;23.10;83.20;;;;;;5051807;28;20036;-47
2021/07/20 08:55:49;;;;;;;13.60;8.90;;;22.90;84.40;;;;;;5032960;28;20128;-47
2021/07/20 08:58:22;;;;;;;14.30;8.55;;;22.70;84.60;;;;;;5031542;28;20087;-47
2021/07/20 09:00:51;;;;;;;13.63;8.77;;;22.30;87.40;;;;;;5014153;28;20550;-48
2021/07/20 09:03:32;;;;;;;18.05;9.95;;;21.90;87.70;;;;;;5031439;28;20045;-46
2021/07/20 09:06:06;;;;;;;13.85;8.77;;;21.60;89.40;;;;;;5030341;28;20045;-45
2021/07/20 09:08:58;;;;;;;17.08;9.63;;;21.60;88.90;;;;;;5041095;28;20080;-45
2021/07/20 09:11:41;;;;;;;16.35;8.63;;;21.80;87.10;;;;;;5030679;28;20064;-45
2021/07/20 09:14:29;;;;;;;15.18;9.65;;;21.90;86.70;;;;;;5010434;28;20037;-45
2021/07/20 09:17:08;;;;;;;15.27;8.50;;;22.50;86.20;;;;;;5024934;28;20030;-46
2021/07/20 09:19:50;;;;;;;11.20;8.20;;;23.30;84.80;;;;;;5030284;28;20064;-46
2021/07/20 09:22:18;;;;;;;12.93;8.27;;;24.00;83.30;;;;;;5031858;28;20060;-47
2021/07/20 09:25:03;;;;;;;14.57;8.30;;;24.40;80.30;;;;;;5030743;28;20418;-45
2021/07/20 09:27:51;;;;;;;12.55;8.02;;;24.40;79.60;;;;;;5031072;28;20116;-46
2021/07/20 09:30:22;;;;;;;13.80;8.07;;;24.60;77.50;;;;;;5030192;28;20049;-46
2021/07/20 09:33:29;;;;;;;12.18;8.25;;;24.80;77.50;;;;;;5030842;28;20104;-45
2021/07/20 09:36:00;;;;;;;12.48;7.38;;;24.90;77.70;;;;;;5010452;28;20036;-45
2021/07/20 09:38:58;;;;;;;14.23;8.32;;;25.10;76.40;;;;;;5030834;28;20030;-44
2021/07/20 09:41:38;;;;;;;16.83;8.68;;;24.70;78.20;;;;;;5030575;28;20501;-47
2021/07/20 09:44:23;;;;;;;13.55;8.23;;;25.00;77.10;;;;;;5030978;28;20057;-47
2021/07/20 09:47:04;;;;;;;13.60;7.00;;;25.00;76.90;;;;;;5030427;28;20026;-50
2021/07/20 09:49:58;;;;;;;16.88;8.20;;;25.00;76.90;;;;;;5029746;28;20048;-47
2021/07/20 09:52:41;;;;;;;14.57;7.68;;;24.10;77.60;;;;;;5030249;28;20034;-45
2021/07/20 09:55:34;;;;;;;12.32;7.65;;;23.80;79.50;;;;;;5030274;28;20102;-47
2021/07/20 09:58:27;;;;;;;11.65;8.85;;;23.40;81.40;;;;;;5030633;28;20028;-45
2021/07/20 10:01:21;;;;;;;17.50;8.90;;;23.00;81.50;;;;;;5029602;28;20105;-45
2021/07/20 10:04:08;;;;;;;13.95;8.13;;;22.60;82.60;;;;;;5028996;28;20033;-46
2021/07/20 10:06:36;;;;;;;10.63;7.93;;;22.50;83.00;;;;;;5030599;28;20079;-49
2021/07/20 10:09:33;;;;;;;14.13;8.25;;;22.20;83.50;;;;;;5029401;28;20030;-47
2021/07/20 10:12:10;;;;;;;13.25;8.23;;;22.10;83.60;;;;;;5029214;28;20041;-48
2021/07/20 10:15:10;;;;;;;10.00;7.75;;;22.20;81.90;;;;;;5049933;28;20091;-45
2021/07/20 10:18:03;;;;;;;10.50;6.72;;;22.60;81.50;;;;;;5032358;28;20492;-46
2021/07/20 10:20:44;;;;;;;11.95;7.88;;;23.00;79.40;;;;;;5029172;28;20033;-48
2021/07/20 10:23:19;;;;;;;9.60;7.50;;;23.40;79.00;;;;;;5033387;28;20061;-46
2021/07/20 10:26:19;;;;;;;11.60;7.78;;;23.80;79.40;;;;;;5029854;28;20534;-45
2021/07/20 10:29:11;;;;;;;13.13;7.10;;;24.30;79.70;;;;;;5026741;28;20025;-44
2021/07/20 10:31:52;;;;;;;13.95;7.75;;;24.50;78.60;;;;;;5016573;28;20138;-47
2021/07/20 10:34:23;;;;;;;11.15;7.60;;;24.70;76.30;;;;;;5029659;28;20037;-48
2021/07/20 10:37:06;;;;;;;10.55;7.82;;;24.70;75.50;;;;;;5029978;28;20100;-46
2021/07/20 10:39:39;;;;;;;12.50;8.35;;;24.60;75.90;;;;;;5027432;28;20144;-47
2021/07/20 10:42:14;;;;;;;9.73;7.68;;;24.40;75.70;;;;;;5030254;28;20397;-44
2021/07/20 10:45:13;;;;;;;16.85;7.88;;;23.90;77.00;;;;;;5049996;28;20077;-48
2021/07/20 10:47:45;;;;;;;11.70;7.88;;;23.70;78.90;;;;;;5010344;28;20553;-47
2021/07/20 10:50:18;;;;;;;12.32;7.97;;;23.30;79.00;;;;;;5009766;28;20033;-45
2021/07/20 10:53:05;;;;;;;11.32;8.23;;;23.10;79.90;;;;;;5010549;28;20025;-50
2021/07/20 10:55:45;;;;;;;9.82;7.68;;;22.70;81.00;;;;;;5010014;28;20030;-49
2021/07/20 10:58:30;;;;;;;18.35;8.25;;;22.70;82.60;;;;;;5025178;28;20703;-45
2021/07/20 11:01:08;;;;;;;9.70;7.30;;;22.60;81.10;;;;;;5029359;28;20022;-48
2021/07/20 11:03:47;;;;;;;10.10;6.75;;;22.70;80.40;;;;;;5029390;28;20068;-50
2021/07/20 11:06:16;;;;;;;9.68;7.18;;;22.90;80.80;;;;;;5045216;22;20474;-45
2021/07/20 11:08:44;;;;;;;13.85;8.52;;;23.20;81.30;;;;;;5028977;28;20030;-46
2021/07/20 11:11:24;;;;;;;13.75;7.90;;;23.50;80.10;;;;;;5030779;28;20356;-46
2021/07/20 11:13:52;;;;;;;11.98;8.18;;;23.60;79.90;;;;;;5011596;28;20033;-47
2021/07/20 11:16:20;;;;;;;10.20;7.25;;;23.90;78.10;;;;;;5046945;28;20021;-47
2021/07/20 11:18:49;;;;;;;9.65;7.65;;;24.10;78.90;;;;;;5053595;28;20119;-44
2021/07/20 11:21:21;;;;;;;12.57;7.60;;;23.80;76.80;;;;;;5049705;28;20051;-43
2021/07/20 11:23:48;;;;;;;12.07;7.05;;;23.80;79.00;;;;;;5045568;28;20394;-49
2021/07/20 11:26:16;;;;;;;13.18;7.97;;;23.80;78.90;;;;;;5033554;28;20017;-48
2021/07/20 11:28:45;;;;;;;13.68;7.60;;;23.90;78.60;;;;;;5015817;28;20492;-43
2021/07/20 11:31:31;;;;;;;12.25;7.43;;;24.00;77.80;;;;;;5033218;28;20591;-47
2021/07/20 11:34:01;;;;;;;11.63;7.90;;;24.00;78.80;;;;;;5033317;28;20032;-46
2021/07/20 11:36:33;;;;;;;10.82;7.10;;;24.10;75.70;;;;;;5046625;28;20151;-46
2021/07/20 11:39:00;;;;;;;10.85;7.45;;;24.10;77.10;;;;;;5037534;28;20116;-47
2021/07/20 11:41:37;;;;;;;17.70;7.20;;;24.10;75.60;;;;;;5048927;28;20031;-44
2021/07/20 11:44:24;;;;;;;13.38;7.78;;;23.90;76.60;;;;;;5040123;28;20025;-51
2021/07/20 11:47:00;;;;;;;10.43;6.90;;;23.90;77.30;;;;;;5048529;28;20051;-46
2021/07/20 11:49:43;;;;;;;11.82;7.28;;;23.90;76.90;;;;;;5032146;28;20108;-49
2021/07/20 11:52:24;;;;;;;10.70;7.20;;;23.90;78.00;;;;;;5031083;28;20685;-47
2021/07/20 11:55:02;;;;;;;12.15;7.55;;;23.90;76.60;;;;;;5048386;28;20029;-48
2021/07/20 11:58:10;;;;;;;8.95;6.72;;;23.80;78.00;;;;;;5032997;28;20033;-47
2021/07/20 12:00:53;;;;;;;10.27;7.65;;;23.90;79.80;;;;;;5032608;28;20025;-51
2021/07/20 12:03:36;;;;;;;8.02;6.65;;;23.80;77.50;;;;;;5032710;28;20079;-47
2021/07/20 12:06:17;;;;;;;11.93;6.85;;;23.70;78.30;;;;;;5033733;28;20437;-47
2021/07/20 12:08:50;;;;;;;11.70;7.03;;;23.80;76.90;;;;;;5032751;28;20075;-44
2021/07/20 12:11:26;;;;;;;10.05;5.97;;;23.70;78.90;;;;;;5032681;28;20029;-45
2021/07/20 12:13:51;;;;;;;11.10;6.75;;;23.70;79.10;;;;;;5033005;28;20036;-47
2021/07/20 12:16:17;;;;;;;11.05;6.47;;;23.60;75.20;;;;;;5032866;28;20096;-44
2021/07/20 12:18:47;;;;;;;9.73;6.43;;;23.70;75.80;;;;;;5032684;28;20025;-49
2021/07/20 12:21:15;;;;;;;11.15;7.10;;;23.70;75.20;;;;;;5032863;28;20026;-45
2021/07/20 12:23:41;;;;;;;10.95;7.07;;;23.70;75.40;;;;;;5032294;28;20040;-44
2021/07/20 12:26:07;;;;;;;16.42;8.43;;;23.70;75.30;;;;;;5032669;28;20033;-45
2021/07/20 12:28:38;;;;;;;9.25;7.38;;;23.80;77.50;;;;;;5032477;28;20108;-45
2021/07/20 12:31:03;;;;;;;10.25;7.68;;;23.90;75.50;;;;;;5032145;28;20026;-51
2021/07/20 12:33:30;;;;;;;9.98;7.55;;;23.80;75.30;;;;;;5032360;28;20067;-48
2021/07/20 12:35:56;;;;;;;8.98;7.78;;;23.70;76.40;;;;;;5031793;28;20047;-48
2021/07/20 12:38:23;;;;;;;91.35;59.90;;;23.80;76.40;;;;;;5032340;28;20509;-51
2021/07/20 12:40:48;;;;;;;12.88;8.23;;;23.60;75.00;;;;;;5031929;28;20090;-45
2021/07/20 12:43:16;;;;;;;11.30;7.43;;;23.60;76.70;;;;;;5032159;28;20436;-46
2021/07/20 12:45:46;;;;;;;11.52;6.97;;;23.60;76.60;;;;;;5031712;28;20079;-50
2021/07/20 12:48:26;;;;;;;11.38;7.15;;;23.50;76.90;;;;;;5032505;28;20386;-49
2021/07/20 12:50:54;;;;;;;8.63;6.90;;;23.50;77.50;;;;;;5031795;28;20566;-45
2021/07/20 12:53:20;;;;;;;11.20;8.00;;;23.70;75.30;;;;;;5031793;28;20037;-44
2021/07/20 12:55:47;;;;;;;8.57;6.75;;;23.70;73.60;;;;;;5032000;28;20029;-48
2021/07/20 12:58:20;;;;;;;13.55;8.10;;;23.70;74.40;;;;;;5031821;28;20022;-46
2021/07/20 13:00:46;;;;;;;8.85;7.50;;;23.50;74.50;;;;;;5031967;28;20021;-49